createdAt,value
2022-12-01T00:01:38.037Z,2.77
2022-12-01T00:05:10.152Z,2.68
2022-12-01T00:08:40.860Z,2.61
2022-12-01T00:12:01.914Z,2.47
2022-12-01T00:15:16.844Z,2.36
2022-12-01T00:18:36.218Z,2.30
2022-12-01T00:22:11.451Z,2.14
2022-12-01T00:25:41.805Z,1.89
2022-12-01T00:29:08.959Z,1.68
2022-12-01T00:32:26.716Z,1.48
2022-12-01T00:35:31.027Z,1.37
2022-12-01T00:38:52.351Z,1.24
2022-12-01T00:42:13.371Z,1.13
2022-12-01T00:45:45.423Z,0.99
2022-12-01T00:49:16.501Z,0.85
2022-12-01T00:52:33.668Z,0.75
2022-12-01T00:55:59.586Z,0.68
2022-12-01T00:59:19.206Z,0.59
2022-12-01T01:02:23.146Z,0.49
2022-12-01T01:05:28.350Z,0.42
2022-12-01T01:08:51.242Z,0.47
2022-12-01T01:12:25.673Z,0.30
2022-12-01T01:15:43.046Z,0.30
2022-12-01T01:19:14.074Z,0.50
2022-12-01T01:22:32.911Z,0.63
2022-12-01T01:25:52.213Z,0.63
2022-12-01T01:29:34.750Z,0.75
2022-12-01T01:32:54.012Z,0.72
2022-12-01T01:36:12.165Z,0.71
2022-12-01T01:39:33.600Z,0.54
2022-12-01T01:43:38.490Z,0.54
2022-12-01T01:47:29.402Z,0.39
2022-12-01T01:51:02.087Z,0.33
2022-12-01T01:54:41.410Z,0.17
2022-12-01T01:58:00.736Z,0.08
2022-12-01T02:01:34.676Z,0.02
2022-12-01T02:04:56.793Z,-0.09
2022-12-01T02:08:26.012Z,0.06
2022-12-01T02:11:57.469Z,0.06
2022-12-01T02:15:34.448Z,-0.03
2022-12-01T02:19:22.829Z,0.02
2022-12-01T02:22:53.359Z,0.17
2022-12-01T02:26:42.011Z,0.21
2022-12-01T02:30:21.788Z,0.16
2022-12-01T02:34:45.952Z,0.17
2022-12-01T02:38:39.054Z,0.12
2022-12-01T02:42:54.392Z,0.20
2022-12-01T02:46:38.926Z,0.18
2022-12-01T02:50:03.696Z,0.19
2022-12-01T02:53:44.526Z,0.14
2022-12-01T02:56:47.462Z,0.10
2022-12-01T03:00:21.892Z,0.03
2022-12-01T03:04:17.414Z,-0.13
2022-12-01T03:08:34.483Z,-0.24
2022-12-01T03:12:14.489Z,-0.45
2022-12-01T03:15:53.397Z,-0.53
2022-12-01T03:19:38.506Z,-0.51
2022-12-01T03:23:22.583Z,-0.51
2022-12-01T03:26:47.498Z,-0.43
2022-12-01T03:30:21.934Z,-0.39
2022-12-01T03:34:04.103Z,-0.17
2022-12-01T03:41:26.425Z,0.13
2022-12-01T03:45:16.244Z,0.21
2022-12-01T03:49:11.209Z,0.26
2022-12-01T03:52:36.383Z,0.22
2022-12-01T03:56:17.521Z,0.19
2022-12-01T03:59:49.397Z,0.19
2022-12-01T04:03:18.895Z,0.10
2022-12-01T04:06:59.161Z,0.04
2022-12-01T04:10:18.427Z,-0.03
2022-12-01T04:13:53.348Z,-0.11
2022-12-01T04:17:30.310Z,-0.20
2022-12-01T04:20:58.417Z,-0.33
2022-12-01T04:24:20.130Z,-0.43
2022-12-01T04:27:39.026Z,-0.45
2022-12-01T04:31:06.912Z,-0.42
2022-12-01T04:34:25.347Z,-0.33
2022-12-01T04:37:42.818Z,-0.45
2022-12-01T04:41:06.862Z,-0.49
2022-12-01T04:44:36.070Z,-0.34
2022-12-01T04:48:05.446Z,-0.48
2022-12-01T04:51:25.907Z,-0.54
2022-12-01T04:55:01.280Z,-0.65
2022-12-01T04:58:19.111Z,-0.63
2022-12-01T05:01:48.453Z,-0.78
2022-12-01T05:05:23.427Z,-0.92
2022-12-01T05:08:46.678Z,-1.00
2022-12-01T05:12:03.793Z,-1.10
2022-12-01T05:15:32.079Z,-1.20
2022-12-01T05:19:16.636Z,-1.21
2022-12-01T05:23:03.813Z,-1.25
2022-12-01T05:26:09.031Z,-1.37
2022-12-01T05:29:57.919Z,-1.45
2022-12-01T05:33:24.181Z,-1.54
2022-12-01T05:36:53.119Z,-1.65
2022-12-01T05:40:09.811Z,-1.70
2022-12-01T05:43:39.852Z,-1.72
2022-12-01T05:47:16.431Z,-1.83
2022-12-01T05:50:34.125Z,-1.87
2022-12-01T05:53:52.909Z,-1.84
2022-12-01T05:57:20.808Z,-1.91
2022-12-01T06:00:45.582Z,-2.01
2022-12-01T06:04:00.055Z,-1.96
2022-12-01T06:07:26.127Z,-2.03
2022-12-01T06:10:46.112Z,-1.99
2022-12-01T06:14:14.096Z,-2.02
2022-12-01T06:17:39.784Z,-2.03
2022-12-01T06:21:07.440Z,-2.11
2022-12-01T06:24:35.735Z,-2.15
2022-12-01T06:28:07.285Z,-2.10
2022-12-01T06:31:25.208Z,-2.22
2022-12-01T06:34:54.311Z,-2.17
2022-12-01T06:38:12.421Z,-2.12
2022-12-01T06:41:46.843Z,-2.04
2022-12-01T06:46:00.889Z,-1.92
2022-12-01T06:49:29.177Z,-2.00
2022-12-01T06:53:06.586Z,-2.03
2022-12-01T06:56:45.047Z,-2.01
2022-12-01T07:00:32.289Z,-1.94
2022-12-01T07:04:00.881Z,-1.79
2022-12-01T07:07:40.949Z,-1.82
2022-12-01T07:11:16.119Z,-1.78
2022-12-01T07:14:59.091Z,-1.74
2022-12-01T07:18:41.724Z,-1.59
2022-12-01T07:22:18.545Z,-1.51
2022-12-01T07:26:02.086Z,-1.37
2022-12-01T07:33:33.361Z,-1.17
2022-12-01T07:37:21.270Z,-1.01
2022-12-01T07:40:31.118Z,-0.86
2022-12-01T07:44:07.392Z,-0.72
2022-12-01T07:47:44.199Z,-0.64
2022-12-01T07:51:11.925Z,-0.43
2022-12-01T07:54:33.207Z,-0.30
2022-12-01T07:58:20.114Z,-0.19
2022-12-01T08:01:46.419Z,0.02
2022-12-01T08:05:18.727Z,0.20
2022-12-01T08:08:53.327Z,0.39
2022-12-01T08:12:28.762Z,0.52
2022-12-01T08:16:10.815Z,0.60
2022-12-01T08:19:44.799Z,0.66
2022-12-01T08:23:18.252Z,0.76
2022-12-01T08:26:28.159Z,0.90
2022-12-01T08:29:34.272Z,1.15
2022-12-01T08:33:14.821Z,1.21
2022-12-01T08:36:39.476Z,1.36
2022-12-01T08:40:15.332Z,1.47
2022-12-01T08:44:17.517Z,1.63
2022-12-01T08:47:41.725Z,1.81
2022-12-01T08:51:20.676Z,1.96
2022-12-01T08:54:23.529Z,2.08
2022-12-01T08:57:42.088Z,2.27
2022-12-01T09:01:10.882Z,2.35
2022-12-01T09:04:52.703Z,2.50
2022-12-01T09:08:33.887Z,2.54
2022-12-01T09:12:10.736Z,2.68
2022-12-01T09:15:58.651Z,2.88
2022-12-01T09:19:34.409Z,2.92
2022-12-01T09:22:52.578Z,2.97
2022-12-01T09:26:50.240Z,3.08
2022-12-01T09:30:09.917Z,3.22
2022-12-01T09:33:42.322Z,3.40
2022-12-01T09:37:02.454Z,3.40
2022-12-01T09:45:02.327Z,4.02
2022-12-01T09:48:46.779Z,4.15
2022-12-01T09:52:22.952Z,4.09
2022-12-01T09:56:03.098Z,4.30
2022-12-01T09:59:22.967Z,4.28
2022-12-01T10:03:17.529Z,4.50
2022-12-01T10:07:18.898Z,4.42
2022-12-01T10:10:44.910Z,4.60
2022-12-01T10:14:22.950Z,4.77
2022-12-01T10:17:54.120Z,4.97
2022-12-01T10:22:03.340Z,5.00
2022-12-01T10:25:55.550Z,5.08
2022-12-01T10:29:49.581Z,5.20
2022-12-01T10:33:22.990Z,5.45
2022-12-01T10:37:01.035Z,5.39
2022-12-01T10:44:01.589Z,5.79
2022-12-01T10:47:45.450Z,5.80
2022-12-01T10:51:57.356Z,6.03
2022-12-01T10:55:32.150Z,6.11
2022-12-01T10:59:05.444Z,6.00
2022-12-01T11:02:44.958Z,6.12
2022-12-01T11:06:08.153Z,6.36
2022-12-01T11:09:31.180Z,6.37
2022-12-01T11:13:19.615Z,7.09
2022-12-01T11:16:55.897Z,7.81
2022-12-01T11:20:38.567Z,7.45
2022-12-01T11:24:44.815Z,7.74
2022-12-01T11:28:21.489Z,7.13
2022-12-01T11:31:54.111Z,7.33
2022-12-01T11:35:37.982Z,6.82
2022-12-01T11:38:43.683Z,6.84
2022-12-01T11:41:50.117Z,7.08
2022-12-01T11:45:39.461Z,7.20
2022-12-01T11:49:23.473Z,7.36
2022-12-01T11:52:45.151Z,7.35
2022-12-01T11:55:52.687Z,7.46
2022-12-01T11:59:49.803Z,7.36
2022-12-01T12:03:23.972Z,7.40
2022-12-01T12:07:01.322Z,7.18
2022-12-01T12:10:49.758Z,6.94
2022-12-01T12:14:51.711Z,6.89
2022-12-01T12:18:40.829Z,6.93
2022-12-01T12:23:01.928Z,6.98
2022-12-01T12:31:17.642Z,6.97
2022-12-01T12:35:32.141Z,7.07
2022-12-01T12:39:31.006Z,6.95
2022-12-01T12:43:25.755Z,6.93
2022-12-01T12:48:10.688Z,6.90
2022-12-01T12:50:58.034Z,6.99
2022-12-01T12:54:47.042Z,6.99
2022-12-01T12:58:31.959Z,6.97
2022-12-01T13:03:42.829Z,7.03
2022-12-01T13:06:24.213Z,7.02
2022-12-01T13:10:45.976Z,6.94
2022-12-01T13:15:03.796Z,6.98
2022-12-01T13:20:04.269Z,7.10
2022-12-01T13:23:50.979Z,7.27
2022-12-01T13:27:34.637Z,7.24
2022-12-01T13:31:31.889Z,7.03
2022-12-01T13:39:48.661Z,6.86
2022-12-01T13:43:27.977Z,6.97
2022-12-01T13:47:32.794Z,6.90
2022-12-01T13:51:04.029Z,6.74
2022-12-01T13:54:30.657Z,6.61
2022-12-01T13:58:29.359Z,6.50
2022-12-01T14:02:20.612Z,6.36
2022-12-01T14:05:54.086Z,6.10
2022-12-01T14:09:28.847Z,6.07
2022-12-01T14:13:18.551Z,6.02
2022-12-01T14:16:55.492Z,5.83
2022-12-01T14:20:46.206Z,5.65
2022-12-01T14:24:08.531Z,5.55
2022-12-01T14:27:45.509Z,5.53
2022-12-01T14:31:49.165Z,5.44
2022-12-01T14:35:20.920Z,5.36
2022-12-01T14:39:49.634Z,5.04
2022-12-01T14:43:36.179Z,4.91
2022-12-01T14:47:51.117Z,4.79
2022-12-01T14:51:32.406Z,4.70
2022-12-01T14:54:51.513Z,4.72
2022-12-01T14:58:59.799Z,4.50
2022-12-01T15:02:25.599Z,4.25
2022-12-01T15:06:12.753Z,4.08
2022-12-01T15:10:01.601Z,3.92
2022-12-01T15:13:48.803Z,3.79
2022-12-01T15:17:36.459Z,3.65
2022-12-01T15:21:31.555Z,3.52
2022-12-01T15:25:15.363Z,3.38
2022-12-01T15:28:48.963Z,3.27
2022-12-01T15:32:27.737Z,3.21
2022-12-01T15:35:56.045Z,3.14
2022-12-01T15:39:36.055Z,3.07
2022-12-01T15:43:10.533Z,2.99
2022-12-01T15:46:32.849Z,2.92
2022-12-01T15:49:57.745Z,2.86
2022-12-01T15:53:36.341Z,2.78
2022-12-01T15:57:05.428Z,2.71
2022-12-01T16:00:40.444Z,2.62
2022-12-01T16:04:22.364Z,2.52
2022-12-01T16:08:15.664Z,2.45
2022-12-01T16:11:25.771Z,2.36
2022-12-01T16:15:12.303Z,2.36
2022-12-01T16:19:03.251Z,2.22
2022-12-01T16:26:16.832Z,2.06
2022-12-01T16:30:03.117Z,2.07
2022-12-01T16:33:31.169Z,2.00
2022-12-01T16:37:12.175Z,1.98
2022-12-01T16:40:34.693Z,1.93
2022-12-01T16:44:27.017Z,1.91
2022-12-01T16:47:33.379Z,1.92
2022-12-01T16:51:29.479Z,1.92
2022-12-01T16:54:52.085Z,1.90
2022-12-01T16:58:28.603Z,1.84
2022-12-01T17:01:34.685Z,1.81
2022-12-01T17:04:38.334Z,1.78
2022-12-01T17:08:08.871Z,1.74
2022-12-01T17:11:45.438Z,1.65
2022-12-01T17:15:18.493Z,1.58
2022-12-01T17:18:48.248Z,1.51
2022-12-01T17:22:10.021Z,1.44
2022-12-01T17:25:46.617Z,1.39
2022-12-01T17:29:32.483Z,1.34
2022-12-01T17:36:35.789Z,1.17
2022-12-01T17:41:01.296Z,1.11
2022-12-01T17:44:57.151Z,1.03
2022-12-01T17:56:29.478Z,0.76
2022-12-01T18:22:31.168Z,0.71
2022-12-01T18:26:21.872Z,0.68
2022-12-01T18:41:25.657Z,0.51
2022-12-01T19:00:09.134Z,0.27
2022-12-01T19:03:52.557Z,0.25
2022-12-01T19:07:32.779Z,0.26
2022-12-01T19:15:02.147Z,0.28
2022-12-01T19:18:49.562Z,0.27
2022-12-01T19:22:12.819Z,0.28
2022-12-01T19:30:05.643Z,0.32
2022-12-01T19:33:48.506Z,0.21
2022-12-01T20:40:58.469Z,-0.30
2022-12-01T20:44:36.641Z,-0.41
2022-12-01T20:59:51.401Z,-0.79
2022-12-01T21:03:51.683Z,-0.89
2022-12-01T21:07:32.733Z,-0.97
2022-12-01T21:15:07.388Z,-1.01
2022-12-01T21:19:32.218Z,-1.07
2022-12-01T21:34:21.080Z,-1.24
2022-12-01T21:57:54.763Z,-1.10
2022-12-01T22:10:08.916Z,-0.78
2022-12-01T22:14:07.362Z,-0.64
2022-12-01T22:17:44.374Z,-0.53
2022-12-01T22:21:31.519Z,-0.40
2022-12-01T22:41:58.137Z,0.10
2022-12-01T22:45:34.221Z,0.17
2022-12-01T22:52:53.428Z,0.27
2022-12-01T22:57:08.042Z,0.26
2022-12-01T23:05:34.507Z,0.38
2022-12-01T23:16:54.394Z,0.65
2022-12-01T23:49:37.161Z,0.86
2022-12-01T23:57:48.134Z,0.97
